Aérodrome :
LOGIN :

S'inscrire | Disclaimer

   EN    FR    IT 

 










Légende :    VFR   VFR Marginal   IFR   IFR Intensif   IFR Très Intensif
Visi : 
Plafond : 
>= 8 km
>= 3000ft
5 à 8 km
1000 à 3000 ft
1500m à 5 km
500 à 1000 ft
800 à 1500m
200 à 500 ft
< 800m
< 200 ft
Symboles :   Orages  Brouillard  Fortes neiges  Fortes précipitations  Vent > 20 kt
SIGMETs :   Divers  Orages  Givrage  Turbulence  Onde Orograph.  Cendres Volcan.






- Altitude de l'aérodrome : 909 ft
- Code IATA : KSF


EDVK - Kassel Calden

DERNIER METAR :
  • 280850Z VRB02KT 9000 FEW007 BKN024 01/M00 Q0996

METARs EXPIRÉS :
  • 280820Z VRB02KT 9999 SCT023 M00/M01 Q0995
  • 280750Z 21004KT 9000 FEW014 BKN023 M00/M01 Q0995
  • 280720Z VRB02KT 8000 FEW014 BKN024 M01/M01 Q0995
  • 280650Z 20003KT 8000 FEW015 BKN032 M00/M01 Q0995
  • 280620Z 18005KT 6000 FEW014 BKN030 M00/M00 Q0995

TAF TAF EDVK
Valide du 28 à 09h jusqu'au 28 à 18h UTC


280800Z 2809/2818 VRB03KT 9000 FEW015 BKN025
BECMG 2809/2811 25005KT
PROB30
TEMPO 2812/2816 4000 -SHRASN BKN014TCU
PROB30
TEMPO 2816/2818 2500 -SHSN BKN010TCU



MET'MAP, la Météo Aéronautique d'un coup d'oeil ! - Copyright ORBIFLY Décembre 2007 - Disclaimer

ORBIFLY MET'MAP TEAM :

Programmation & Développement : Alexandra Zaïnal
Sur une idée originale de : Baudouin d'Aumeries
Assistance à la programmation : Marc-Olivier Méhu
Soutien technique & logistique : Manuel Goepfert

Contact : metmap@orbifly.com




SOURCES & CREDITS :

   NOAA